createdAt,value
2023-03-13T00:00:23.485Z,9.70
2023-03-13T00:10:56.326Z,8.57
2023-03-13T00:16:07.555Z,7.20
2023-03-13T00:21:14.486Z,6.10
2023-03-13T00:26:23.729Z,5.88
2023-03-13T00:31:33.955Z,5.32
2023-03-13T00:36:40.550Z,4.93
2023-03-13T00:41:48.304Z,4.05
2023-03-13T00:46:56.224Z,4.78
2023-03-13T00:52:02.555Z,5.13
2023-03-13T00:57:09.358Z,5.22
2023-03-13T01:02:17.566Z,4.65
2023-03-13T01:07:24.089Z,5.43
2023-03-13T01:12:31.319Z,5.82
2023-03-13T01:17:39.387Z,6.45
2023-03-13T01:22:46.178Z,6.40
2023-03-13T01:27:53.389Z,5.80
2023-03-13T01:33:04.004Z,4.93
2023-03-13T01:38:11.284Z,5.10
2023-03-13T01:43:26.816Z,4.90
2023-03-13T01:48:47.971Z,4.03
2023-03-13T01:54:05.029Z,4.53
2023-03-13T01:59:15.978Z,4.20
2023-03-13T02:04:25.669Z,4.07
2023-03-13T02:09:34.244Z,3.67
2023-03-13T02:14:43.619Z,3.00
2023-03-13T02:19:53.613Z,4.40
2023-03-13T02:25:09.409Z,4.22
2023-03-13T02:30:18.240Z,4.97
2023-03-13T02:35:26.214Z,4.55
2023-03-13T02:40:37.201Z,4.90
2023-03-13T02:46:01.586Z,4.60
2023-03-13T02:51:18.122Z,5.30
2023-03-13T02:56:28.898Z,5.15
2023-03-13T03:01:37.268Z,5.55
2023-03-13T03:06:43.840Z,4.43
2023-03-13T03:11:50.851Z,5.00
2023-03-13T03:16:58.838Z,5.57
2023-03-13T03:22:06.669Z,5.68
2023-03-13T03:27:13.891Z,5.20
2023-03-13T03:32:28.513Z,5.47
2023-03-13T03:37:35.470Z,5.80
2023-03-13T03:42:43.846Z,6.88
2023-03-13T03:47:51.984Z,6.53
2023-03-13T03:52:58.677Z,8.70
2023-03-13T03:58:06.080Z,6.45
2023-03-13T04:03:34.509Z,6.25
2023-03-13T04:08:41.412Z,7.53
2023-03-13T04:13:50.481Z,6.85
2023-03-13T04:18:59.088Z,6.55
2023-03-13T04:24:07.460Z,7.07
2023-03-13T04:29:16.086Z,6.72
2023-03-13T04:34:50.783Z,6.88
2023-03-13T04:40:17.902Z,6.72
2023-03-13T04:45:55.267Z,8.27
2023-03-13T04:51:03.968Z,7.88
2023-03-13T04:56:41.778Z,7.72
2023-03-13T05:02:12.233Z,8.60
2023-03-13T05:07:20.903Z,8.93
2023-03-13T05:12:46.691Z,7.35
2023-03-13T05:18:28.917Z,6.82
2023-03-13T05:24:07.135Z,7.07
2023-03-13T05:29:14.058Z,6.68
2023-03-13T05:34:46.762Z,6.93
2023-03-13T05:40:15.974Z,7.80
2023-03-13T05:45:54.732Z,7.07
2023-03-13T05:51:16.894Z,6.82
2023-03-13T05:56:37.687Z,7.72
2023-03-13T06:02:02.454Z,8.30
2023-03-13T06:07:17.684Z,7.07
2023-03-13T06:12:25.569Z,7.30
2023-03-13T06:17:31.960Z,7.07
2023-03-13T06:22:38.812Z,7.07
2023-03-13T06:27:46.924Z,7.05
2023-03-13T06:32:53.574Z,6.60
2023-03-13T06:38:00.299Z,7.57
2023-03-13T06:43:08.419Z,7.47
2023-03-13T06:48:14.950Z,6.77
2023-03-13T06:53:22.592Z,8.23
2023-03-13T06:58:32.784Z,8.43
2023-03-13T07:03:41.719Z,8.40
2023-03-13T07:08:48.847Z,7.95
2023-03-13T07:14:15.200Z,6.63
2023-03-13T07:19:23.372Z,6.78
2023-03-13T07:24:29.905Z,7.10
2023-03-13T07:29:38.114Z,6.75
2023-03-13T07:34:45.683Z,5.72
2023-03-13T07:39:52.376Z,6.40
2023-03-13T07:45:00.409Z,6.05
2023-03-13T07:50:08.302Z,5.72
2023-03-13T07:55:14.781Z,6.32
2023-03-13T08:00:24.609Z,8.70
2023-03-13T08:05:32.127Z,5.70
2023-03-13T08:10:38.679Z,7.55
2023-03-13T08:15:46.429Z,7.32
2023-03-13T08:20:52.821Z,6.88
2023-03-13T08:26:03.136Z,8.10
2023-03-13T08:31:12.984Z,6.05
2023-03-13T08:36:23.539Z,5.88
2023-03-13T08:41:48.361Z,4.30
2023-03-13T08:46:57.326Z,7.20
2023-03-13T08:52:05.796Z,4.63
2023-03-13T08:57:12.260Z,4.93
2023-03-13T09:02:21.589Z,5.07
2023-03-13T09:07:28.248Z,4.85
2023-03-13T09:12:34.671Z,4.78
2023-03-13T09:17:42.813Z,4.38
2023-03-13T09:22:51.271Z,4.80
2023-03-13T09:27:57.774Z,4.75
2023-03-13T09:33:05.794Z,4.72
2023-03-13T09:38:12.437Z,4.13
2023-03-13T09:43:34.820Z,4.57
2023-03-13T09:48:47.670Z,4.80
2023-03-13T09:54:01.492Z,4.57
2023-03-13T09:59:19.106Z,4.18
2023-03-13T10:04:36.118Z,3.53
2023-03-13T10:09:42.827Z,4.88
2023-03-13T10:15:02.226Z,3.88
2023-03-13T10:20:24.862Z,3.95
2023-03-13T10:25:35.394Z,4.55
2023-03-13T10:30:48.865Z,4.40
2023-03-13T10:36:10.860Z,4.75
2023-03-13T10:41:32.808Z,4.72
2023-03-13T10:46:45.367Z,4.03
2023-03-13T10:51:56.244Z,6.35
2023-03-13T10:57:30.530Z,5.57
2023-03-13T11:02:40.466Z,3.90
2023-03-13T11:07:48.686Z,3.55
2023-03-13T11:12:57.446Z,3.83
2023-03-13T11:18:13.089Z,4.05
2023-03-13T11:23:27.376Z,3.78
2023-03-13T11:28:52.346Z,3.75
2023-03-13T11:34:07.631Z,5.50
2023-03-13T11:39:43.028Z,3.70
2023-03-13T11:44:59.955Z,3.63
2023-03-13T11:50:27.901Z,3.58
2023-03-13T11:55:57.656Z,3.45
2023-03-13T12:01:09.782Z,3.08
2023-03-13T12:06:28.798Z,3.53
2023-03-13T12:11:44.218Z,2.97
2023-03-13T12:16:56.194Z,4.13
2023-03-13T12:22:14.853Z,2.63
2023-03-13T12:27:32.976Z,2.80
2023-03-13T12:32:45.346Z,3.83
2023-03-13T12:38:00.100Z,2.83
2023-03-13T12:43:16.324Z,3.08
2023-03-13T12:48:47.078Z,4.60
2023-03-13T12:54:41.970Z,4.38
2023-03-13T12:59:56.190Z,3.83
2023-03-13T13:05:04.571Z,3.75
2023-03-13T13:10:25.462Z,3.25
2023-03-13T13:15:33.533Z,3.10
2023-03-13T13:20:47.422Z,2.93
2023-03-13T13:25:55.822Z,2.85
2023-03-13T13:31:24.461Z,2.87
2023-03-13T13:36:44.949Z,2.90
2023-03-13T13:41:51.645Z,3.20
2023-03-13T13:47:02.367Z,3.67
2023-03-13T13:52:43.886Z,3.08
2023-03-13T13:57:54.127Z,3.22
2023-03-13T14:03:00.895Z,2.50
2023-03-13T14:08:19.463Z,3.65
2023-03-13T14:13:26.407Z,2.58
2023-03-13T14:18:33.730Z,2.50
2023-03-13T14:23:45.022Z,2.70
2023-03-13T14:28:54.282Z,2.05
2023-03-13T14:39:21.790Z,2.42
2023-03-13T14:44:32.605Z,2.80
2023-03-13T14:49:39.774Z,2.38
2023-03-13T14:54:58.250Z,2.47
2023-03-13T15:00:36.694Z,2.05
2023-03-13T15:05:43.302Z,2.42
2023-03-13T15:10:52.346Z,2.80
2023-03-13T15:15:59.063Z,3.03
2023-03-13T15:21:27.826Z,2.47
2023-03-13T15:26:35.936Z,2.60
2023-03-13T15:31:42.881Z,3.13
2023-03-13T15:36:49.675Z,3.03
2023-03-13T15:41:57.559Z,2.83
2023-03-13T15:47:04.454Z,2.63
2023-03-13T15:52:19.356Z,3.05
2023-03-13T15:57:29.475Z,3.20
2023-03-13T16:02:36.030Z,2.20
2023-03-13T16:07:42.621Z,2.88
2023-03-13T16:12:50.600Z,2.05
2023-03-13T16:17:57.127Z,3.53
2023-03-13T16:23:04.880Z,2.72
2023-03-13T16:28:16.330Z,2.70
2023-03-13T16:33:23.658Z,3.25
2023-03-13T16:38:30.744Z,3.38
2023-03-13T16:43:39.106Z,3.70
2023-03-13T16:48:47.109Z,2.73
2023-03-13T16:53:56.689Z,2.97
2023-03-13T16:59:09.074Z,2.78
2023-03-13T17:04:16.723Z,2.70
2023-03-13T17:09:23.400Z,3.17
2023-03-13T17:14:33.609Z,3.10
2023-03-13T17:19:40.886Z,2.65
2023-03-13T17:24:50.325Z,2.65
2023-03-13T17:30:00.417Z,3.00
2023-03-13T17:35:08.795Z,3.22
2023-03-13T17:40:22.647Z,2.87
2023-03-13T17:45:31.336Z,2.85
2023-03-13T17:50:40.836Z,3.00
2023-03-13T17:55:49.258Z,4.15
2023-03-13T18:00:59.236Z,3.00
2023-03-13T18:06:16.640Z,2.55
2023-03-13T18:11:27.115Z,2.45
2023-03-13T18:16:42.870Z,3.20
2023-03-13T18:21:53.607Z,2.80
2023-03-13T18:27:03.595Z,3.22
2023-03-13T18:32:15.984Z,2.83
2023-03-13T18:37:29.363Z,3.08
2023-03-13T18:42:38.320Z,3.10
2023-03-13T18:47:53.302Z,2.53
2023-03-13T18:53:05.106Z,2.83
2023-03-13T18:58:15.824Z,2.85
2023-03-13T19:03:29.665Z,3.17
2023-03-13T19:08:40.610Z,3.53
2023-03-13T19:13:52.625Z,2.78
2023-03-13T19:19:06.015Z,3.30
2023-03-13T19:24:17.885Z,2.80
2023-03-13T19:29:30.444Z,3.00
2023-03-13T19:34:42.006Z,3.00
2023-03-13T19:39:54.598Z,3.60
2023-03-13T19:45:06.810Z,4.03
2023-03-13T19:50:28.741Z,3.13
2023-03-13T19:55:37.979Z,4.18
2023-03-13T20:00:48.142Z,4.47
2023-03-13T20:05:59.550Z,3.90
2023-03-13T20:11:08.998Z,4.93
2023-03-13T20:16:18.864Z,3.97
2023-03-13T20:21:33.167Z,3.75
2023-03-13T20:26:45.289Z,3.60
2023-03-13T20:31:53.816Z,3.58
2023-03-13T20:42:18.336Z,3.65
2023-03-13T20:47:29.160Z,3.40
2023-03-13T20:52:43.159Z,3.42
2023-03-13T20:57:54.057Z,3.50
2023-03-13T21:03:04.836Z,3.22
2023-03-13T21:08:15.069Z,3.17
2023-03-13T21:13:24.033Z,3.45
2023-03-13T21:23:45.923Z,3.08
2023-03-13T21:28:54.798Z,3.72
2023-03-13T21:34:02.564Z,3.47
2023-03-13T21:39:12.718Z,3.63
2023-03-13T21:44:20.069Z,3.47
2023-03-13T21:49:27.045Z,3.53
2023-03-13T21:54:35.810Z,2.92
2023-03-13T21:59:43.445Z,3.17
2023-03-13T22:04:51.304Z,2.70
2023-03-13T22:10:00.498Z,3.10
2023-03-13T22:15:08.813Z,3.63
2023-03-13T22:20:15.887Z,3.13
2023-03-13T22:25:24.289Z,2.65
2023-03-13T22:30:30.876Z,3.13
2023-03-13T22:35:40.061Z,2.95
2023-03-13T22:40:48.814Z,2.50
2023-03-13T22:51:08.462Z,2.97
2023-03-13T22:56:17.211Z,2.85
2023-03-13T23:01:23.708Z,2.83
2023-03-13T23:06:30.427Z,3.13
2023-03-13T23:11:38.795Z,2.90
2023-03-13T23:16:45.860Z,3.17
2023-03-13T23:21:52.795Z,3.15
2023-03-13T23:27:01.004Z,2.47
2023-03-13T23:32:07.657Z,2.90
2023-03-13T23:37:14.127Z,3.67
2023-03-13T23:42:21.882Z,3.20
2023-03-13T23:47:31.843Z,3.60
2023-03-13T23:52:39.180Z,3.47
2023-03-13T23:57:51.022Z,3.47
